createdAt,value
2023-03-26T16:36:48.915Z,93943.00
2023-03-26T16:44:48.929Z,93923.00
2023-03-26T16:52:49.306Z,93884.00
2023-03-26T17:00:49.361Z,93863.00
2023-03-26T17:08:49.196Z,93880.00
2023-03-26T17:16:49.089Z,93916.00
2023-03-26T17:20:50.163Z,93906.00
2023-03-26T17:24:50.123Z,93896.00
2023-03-26T17:28:50.634Z,93904.00
2023-03-26T17:32:50.159Z,93906.00
2023-03-26T17:36:50.022Z,93914.00
2023-03-26T17:40:49.980Z,93904.00
2023-03-26T17:44:50.168Z,93898.00
2023-03-26T17:48:50.342Z,93892.00
2023-03-26T17:52:50.561Z,93880.00
2023-03-26T17:56:50.756Z,93880.00
2023-03-26T18:00:51.036Z,93886.00
2023-03-26T18:04:51.091Z,93872.00
2023-03-26T18:08:51.300Z,93894.00
2023-03-26T18:12:51.496Z,93910.00
2023-03-26T18:16:51.765Z,93906.00
2023-03-26T18:20:51.643Z,93910.00
2023-03-26T18:24:51.615Z,93919.00
2023-03-26T18:28:51.568Z,93925.00
2023-03-26T18:36:50.485Z,93972.00
2023-03-26T19:04:51.266Z,93882.00
2023-03-26T19:12:51.617Z,93861.00
2023-03-26T19:16:52.867Z,93870.00
2023-03-26T19:20:52.818Z,93874.00
2023-03-26T19:24:52.753Z,93886.00
2023-03-26T19:28:52.715Z,93888.00
2023-03-26T19:32:52.700Z,93906.00
2023-03-26T19:36:52.662Z,93910.00
2023-03-26T19:40:52.637Z,93908.00
2023-03-26T19:44:52.640Z,93904.00
2023-03-26T19:48:52.826Z,93898.00
2023-03-26T19:52:56.902Z,93898.00
2023-03-26T19:56:52.993Z,93886.00
2023-03-26T20:04:51.864Z,93878.00
2023-03-26T20:12:51.965Z,93880.00
2023-03-26T20:16:52.785Z,93880.00
2023-03-26T20:20:52.756Z,93890.00
2023-03-26T20:24:52.974Z,93890.00
2023-03-26T20:28:53.689Z,93888.00
2023-03-26T20:33:11.956Z,93904.00
2023-03-26T20:36:52.886Z,93908.00
2023-03-26T20:40:52.823Z,93919.00
2023-03-26T20:44:52.762Z,93925.00
2023-03-26T20:48:54.048Z,93923.00
2023-03-26T20:52:52.679Z,93921.00
2023-03-26T20:56:52.723Z,93916.00
2023-03-26T21:00:52.656Z,93912.00
2023-03-26T21:04:52.569Z,93912.00
2023-03-26T21:08:52.556Z,93902.00
2023-03-26T21:12:52.524Z,93902.00
2023-03-26T21:20:51.637Z,93904.00
2023-03-26T21:28:51.581Z,93904.00
2023-03-26T21:32:52.553Z,93906.00
2023-03-26T21:36:52.488Z,93902.00
2023-03-26T21:40:58.329Z,93894.00
2023-03-26T21:44:52.426Z,93894.00
2023-03-26T21:48:52.595Z,93892.00
2023-03-26T21:52:52.338Z,93886.00
2023-03-26T21:56:52.294Z,93880.00
2023-03-26T22:00:52.292Z,93882.00
2023-03-26T22:04:52.206Z,93884.00
2023-03-26T22:08:52.156Z,93878.00
2023-03-26T22:12:52.147Z,93874.00
2023-03-26T22:16:52.361Z,93876.00
2023-03-26T22:20:52.556Z,93872.00
2023-03-26T22:24:52.496Z,93863.00
2023-03-26T22:28:52.463Z,93851.00
2023-03-26T22:36:51.379Z,93845.00
2023-03-26T22:40:52.334Z,93849.00
2023-03-26T22:44:52.296Z,93841.00
2023-03-26T22:48:52.341Z,93847.00
2023-03-26T22:52:52.278Z,93845.00
2023-03-26T22:56:52.500Z,93849.00
2023-03-26T23:00:52.683Z,93855.00
